Time;durP1;ratioP1;P1;durP2;ratioP2;P2;SDS_P1;SDS_P2;PMS_P1;PMS_P2;Temp;Humidity;BMP_temperature;BMP_pressure;BME280_temperature;BME280_humidity;BME280_pressure;Samples;Min_cycle;Max_cycle;Signal;HPM_P1;HPM_P2
2022/09/08 00:02:17;;;;;;;;;;;;;;;20.56;60.31;99520.41;4408956;32;20005;-89
2022/09/08 00:04:43;;;;;;;;;;;;;;;20.46;60.29;99521.13;4410441;32;19988;-89
2022/09/08 00:07:08;;;;;;;;;;;;;;;20.57;60.31;99522.09;4413880;32;20002;-89
2022/09/08 00:09:34;;;;;;;;;;;;;;;20.66;60.31;99516.97;4420415;32;20400;-89
2022/09/08 00:12:01;;;;;;;;;;;;;;;20.51;60.30;99508.41;4409484;32;20408;-89
2022/09/08 00:14:28;;;;;;;;;;;;;;;20.56;60.30;99509.84;4408195;32;20016;-90
2022/09/08 00:16:53;;;;;;;;;;;;;;;20.58;60.30;99510.56;4407763;32;20048;-88
2022/09/08 00:19:18;;;;;;;;;;;;;;;20.54;60.30;99504.66;4408037;32;20436;-88
2022/09/08 00:21:43;;;;;;;;;;;;;;;20.59;60.30;99502.53;4407083;32;22234;-89
2022/09/08 00:24:09;;;;;;;;;;;;;;;20.73;60.31;99501.44;4408027;32;20021;-88
2022/09/08 00:26:34;;;;;;;;;;;;;;;20.71;60.31;99492.78;4394455;32;24024;-89
2022/09/08 00:28:59;;;;;;;;;;;;;;;20.64;60.31;99495.09;4406933;32;20321;-87
2022/09/08 00:31:24;;;;;;;;;;;;;;;20.47;60.30;99485.78;4407512;32;20224;-89
2022/09/08 00:33:49;;;;;;;;;;;;;;;20.60;60.30;99487.50;4408017;32;20001;-88
2022/09/08 00:36:15;;;;;;;;;;;;;;;20.50;60.29;99482.91;4407953;32;20012;-88
2022/09/08 00:38:41;;;;;;;;;;;;;;;20.53;60.29;99481.84;4409062;32;20308;-88
2022/09/08 00:41:10;;;;;;;;;;;;;;;20.57;60.30;99479.78;4409130;32;20017;-88
2022/09/08 00:43:37;;;;;;;;;;;;;;;20.53;60.29;99480.03;4408897;32;19974;-88
2022/09/08 00:46:22;;;;;;;;;;;;;;;20.51;60.30;99475.81;4407395;32;20374;-88
2022/09/08 00:48:49;;;;;;;;;;;;;;;20.49;60.30;99470.66;4408432;32;19997;-87
2022/09/08 00:51:16;;;;;;;;;;;;;;;20.49;60.30;99475.94;4408889;32;20069;-88
2022/09/08 00:53:41;;;;;;;;;;;;;;;20.40;60.29;99473.16;4407379;32;20389;-88
2022/09/08 00:56:06;;;;;;;;;;;;;;;20.39;60.29;99467.03;4408975;32;19998;-87
2022/09/08 00:58:35;;;;;;;;;;;;;;;20.46;60.29;99468.25;4408034;32;20024;-92
2022/09/08 01:01:00;;;;;;;;;;;;;;;20.60;60.30;99475.13;4382334;32;810033;-89
2022/09/08 01:03:26;;;;;;;;;;;;;;;20.65;60.31;99465.03;4407603;32;19986;-89
2022/09/08 01:05:54;;;;;;;;;;;;;;;20.44;60.30;99472.81;4407571;32;20001;-90
2022/09/08 01:14:06;;;;;;;;;;;;;;;20.50;60.30;99471.50;4408081;32;19993;-90
2022/09/08 01:16:39;;;;;;;;;;;;;;;20.30;60.28;99470.34;4408918;32;19979;-87
2022/09/08 01:19:05;;;;;;;;;;;;;;;20.35;60.29;99470.03;4407911;32;20342;-87
2022/09/08 01:21:43;;;;;;;;;;;;;;;20.11;60.28;99472.69;4407341;32;20757;-89
2022/09/08 01:24:08;;;;;;;;;;;;;;;20.22;60.28;99473.59;4408956;32;20621;-88
2022/09/08 01:26:53;;;;;;;;;;;;;;;20.42;60.29;99466.81;4408977;32;19994;-88
2022/09/08 01:29:19;;;;;;;;;;;;;;;20.24;60.29;99469.03;4409170;32;19986;-87
2022/09/08 01:31:45;;;;;;;;;;;;;;;20.18;60.28;99471.31;4394387;32;20040;-89
2022/09/08 01:34:10;;;;;;;;;;;;;;;20.28;60.28;99468.78;4408198;32;19986;-89
2022/09/08 01:36:35;;;;;;;;;;;;;;;20.09;60.28;99462.25;4409414;32;19986;-88
2022/09/08 01:39:00;;;;;;;;;;;;;;;20.18;60.28;99463.38;4410483;32;19990;-89
2022/09/08 01:41:26;;;;;;;;;;;;;;;19.96;60.27;99468.59;4420989;32;19981;-88
2022/09/08 01:43:51;;;;;;;;;;;;;;;20.14;60.27;99464.56;4409533;32;19982;-88
2022/09/08 01:46:16;;;;;;;;;;;;;;;20.04;60.27;99466.19;4408376;32;20315;-88
2022/09/08 01:48:41;;;;;;;;;;;;;;;19.99;60.27;99465.72;4407062;32;19982;-87
2022/09/08 01:51:07;;;;;;;;;;;;;;;20.13;60.27;99470.81;4406293;32;23116;-88
2022/09/08 01:53:32;;;;;;;;;;;;;;;20.12;60.28;99471.78;4406850;32;19996;-90
2022/09/08 01:55:57;;;;;;;;;;;;;;;20.04;60.28;99458.28;4406477;32;20347;-88
2022/09/08 01:58:23;;;;;;;;;;;;;;;20.10;60.28;99463.09;4394349;32;20287;-89
2022/09/08 02:00:49;;;;;;;;;;;;;;;19.82;60.26;99461.69;4406293;32;28238;-89
2022/09/08 02:03:14;;;;;;;;;;;;;;;19.85;60.27;99464.94;4406510;32;19978;-88
2022/09/08 02:05:39;;;;;;;;;;;;;;;19.80;60.26;99453.88;4407051;32;19982;-89
2022/09/08 02:08:05;;;;;;;;;;;;;;;19.91;60.26;99461.84;4408145;32;20299;-88
2022/09/08 02:10:30;;;;;;;;;;;;;;;19.84;60.26;99462.41;4406586;32;19986;-88
2022/09/08 02:12:55;;;;;;;;;;;;;;;19.87;60.26;99468.34;4406244;32;21973;-89
2022/09/08 02:15:20;;;;;;;;;;;;;;;19.98;60.27;99454.31;4406783;32;20224;-88
2022/09/08 02:17:46;;;;;;;;;;;;;;;20.03;60.27;99456.59;4406752;32;20001;-88
2022/09/08 02:20:11;;;;;;;;;;;;;;;19.88;60.26;99459.44;4405905;32;19978;-87
2022/09/08 02:22:37;;;;;;;;;;;;;;;19.82;60.26;99456.41;4406904;32;19990;-87
2022/09/08 02:25:02;;;;;;;;;;;;;;;19.79;60.26;99456.62;4407432;32;22334;-88
2022/09/08 02:27:27;;;;;;;;;;;;;;;19.80;60.26;99461.81;4406822;32;20335;-88
2022/09/08 02:29:52;;;;;;;;;;;;;;;19.77;60.27;99467.31;4406597;32;19966;-88
2022/09/08 02:32:18;;;;;;;;;;;;;;;19.70;60.26;99458.16;4406265;32;19994;-87
2022/09/08 02:34:43;;;;;;;;;;;;;;;19.73;60.26;99455.31;4393674;32;20252;-88
2022/09/08 02:37:08;;;;;;;;;;;;;;;19.65;60.25;99470.03;4406528;32;19990;-87
2022/09/08 02:39:33;;;;;;;;;;;;;;;19.69;60.25;99461.78;4405992;32;20362;-87
2022/09/08 02:41:59;;;;;;;;;;;;;;;19.71;60.26;99465.13;4405814;32;21697;-88
2022/09/08 02:44:24;;;;;;;;;;;;;;;19.75;60.25;99463.94;4406365;32;19998;-87
2022/09/08 02:46:49;;;;;;;;;;;;;;;19.86;60.27;99465.78;4406575;32;20040;-88
2022/09/08 02:49:14;;;;;;;;;;;;;;;19.87;60.26;99463.06;4406275;32;20295;-88
2022/09/08 02:51:40;;;;;;;;;;;;;;;19.92;60.26;99458.25;4406247;32;20260;-88
2022/09/08 02:54:05;;;;;;;;;;;;;;;19.82;60.26;99451.97;4394142;32;19984;-88
2022/09/08 02:56:30;;;;;;;;;;;;;;;19.96;60.27;99460.66;4408522;32;20292;-88
2022/09/08 02:58:55;;;;;;;;;;;;;;;19.84;60.26;99457.97;4408500;32;19986;-86
2022/09/08 03:01:21;;;;;;;;;;;;;;;19.86;60.27;99455.22;4409608;32;23512;-88
2022/09/08 03:03:46;;;;;;;;;;;;;;;19.90;60.26;99460.19;4408968;32;19997;-87
2022/09/08 03:06:11;;;;;;;;;;;;;;;20.02;60.28;99452.28;4409319;32;20579;-87
2022/09/08 03:08:37;;;;;;;;;;;;;;;19.96;60.27;99448.28;4411683;32;20308;-88
2022/09/08 03:11:02;;;;;;;;;;;;;;;19.90;60.27;99449.59;4411724;32;26611;-89
2022/09/08 03:13:28;;;;;;;;;;;;;;;19.83;60.26;99450.16;4422150;32;19985;-88
2022/09/08 03:15:53;;;;;;;;;;;;;;;19.91;60.26;99450.44;4410127;32;19986;-88
2022/09/08 03:18:18;;;;;;;;;;;;;;;19.82;60.26;99451.13;4409990;32;20332;-88
2022/09/08 03:20:45;;;;;;;;;;;;;;;19.99;60.26;99440.12;4407870;32;20604;-88
2022/09/08 03:23:17;;;;;;;;;;;;;;;19.84;60.25;99444.75;4409581;32;19999;-88
2022/09/08 03:25:43;;;;;;;;;;;;;;;19.98;60.27;99441.09;4409578;32;20065;-88
2022/09/08 03:28:08;;;;;;;;;;;;;;;19.96;60.27;99434.25;4408092;32;19986;-89
2022/09/08 03:30:33;;;;;;;;;;;;;;;19.88;60.26;99435.69;4408034;32;20038;-89
2022/09/08 03:32:58;;;;;;;;;;;;;;;19.89;60.26;99434.72;4407609;32;23983;-89
2022/09/08 03:35:24;;;;;;;;;;;;;;;19.90;60.26;99439.03;4407818;32;19994;-89
2022/09/08 03:37:49;;;;;;;;;;;;;;;19.81;60.25;99441.50;4407985;32;20256;-89
2022/09/08 03:40:15;;;;;;;;;;;;;;;19.84;60.26;99447.41;4407720;32;19993;-88
2022/09/08 03:42:40;;;;;;;;;;;;;;;19.74;60.25;99443.78;4408098;32;20031;-88
2022/09/08 03:45:06;;;;;;;;;;;;;;;19.70;60.25;99458.16;4408190;32;19986;-84
2022/09/08 03:47:32;;;;;;;;;;;;;;;19.75;60.25;99457.81;4408028;32;19989;-87
2022/09/08 03:49:57;;;;;;;;;;;;;;;19.73;60.26;99455.31;4407232;32;25800;-86
2022/09/08 03:52:23;;;;;;;;;;;;;;;19.68;60.24;99456.59;4407542;32;19982;-87
2022/09/08 03:54:48;;;;;;;;;;;;;;;19.72;60.26;99453.63;4407916;32;20008;-86
2022/09/08 03:57:15;;;;;;;;;;;;;;;19.73;60.25;99457.94;4408082;32;19993;-87
2022/09/08 03:59:41;;;;;;;;;;;;;;;19.72;60.25;99455.41;4408113;32;20037;-87
2022/09/08 04:02:06;;;;;;;;;;;;;;;19.75;60.25;99460.47;4408667;32;19994;-87
2022/09/08 04:04:32;;;;;;;;;;;;;;;19.62;60.25;99466.63;4407769;32;19993;-87
2022/09/08 04:06:57;;;;;;;;;;;;;;;19.47;60.25;99461.63;4408859;32;20005;-89
2022/09/08 04:09:22;;;;;;;;;;;;;;;19.57;60.25;99468.78;4408078;32;19982;-87
2022/09/08 04:11:48;;;;;;;;;;;;;;;19.48;60.25;99479.16;4408189;32;20043;-88
2022/09/08 04:14:13;;;;;;;;;;;;;;;19.62;60.25;99477.19;4407575;32;20017;-89
2022/09/08 04:16:40;;;;;;;;;;;;;;;19.72;60.25;99477.38;4407162;32;19996;-90
2022/09/08 04:19:05;;;;;;;;;;;;;;;19.71;60.26;99480.97;4408124;32;20330;-89
2022/09/08 04:21:30;;;;;;;;;;;;;;;19.91;60.27;99475.06;4407990;32;19979;-88
2022/09/08 04:23:56;;;;;;;;;;;;;;;19.97;60.26;99475.56;4407455;32;23183;-89
2022/09/08 04:26:21;;;;;;;;;;;;;;;19.95;60.27;99458.97;4409791;32;19974;-89
2022/09/08 04:28:46;;;;;;;;;;;;;;;19.76;60.25;99463.00;4408150;32;19993;-89
2022/09/08 04:31:12;;;;;;;;;;;;;;;19.74;60.25;99459.63;4407965;32;20017;-89
2022/09/08 04:33:38;;;;;;;;;;;;;;;19.80;60.26;99459.16;4408374;32;19998;-89
2022/09/08 04:36:07;;;;;;;;;;;;;;;20.01;60.26;99453.22;4395048;32;19978;-88
2022/09/08 04:38:32;;;;;;;;;;;;;;;20.00;60.26;99459.47;4409459;32;20077;-89
2022/09/08 04:41:02;;;;;;;;;;;;;;;20.07;60.26;99463.31;4410714;32;20008;-89
2022/09/08 04:43:27;;;;;;;;;;;;;;;20.12;60.28;99466.50;4414841;32;19980;-89
2022/09/08 04:45:52;;;;;;;;;;;;;;;20.27;60.28;99461.81;4420039;32;19970;-89
2022/09/08 04:48:18;;;;;;;;;;;;;;;20.29;60.28;99458.09;4410287;32;19978;-88
2022/09/08 04:50:43;;;;;;;;;;;;;;;20.30;60.28;99464.22;4407533;32;19986;-89
2022/09/08 04:53:08;;;;;;;;;;;;;;;20.46;60.28;99470.91;4408579;32;20335;-89
2022/09/08 04:55:37;;;;;;;;;;;;;;;20.57;60.29;99467.41;4394721;32;20465;-88
2022/09/08 04:58:02;;;;;;;;;;;;;;;20.62;60.31;99467.91;4407913;32;19998;-89
2022/09/08 05:00:49;;;;;;;;;;;;;;;20.68;60.30;99464.78;4409470;32;20041;-89
2022/09/08 05:03:14;;;;;;;;;;;;;;;20.98;60.32;99464.16;4408206;32;20002;-88
2022/09/08 05:05:39;;;;;;;;;;;;;;;21.00;60.32;99461.38;4407750;32;23136;-89
2022/09/08 05:08:05;;;;;;;;;;;;;;;21.03;60.32;99461.16;4408116;32;19978;-89
2022/09/08 05:10:32;;;;;;;;;;;;;;;21.11;60.32;99464.88;4407857;32;20018;-89
2022/09/08 05:12:57;;;;;;;;;;;;;;;21.26;60.34;99467.28;4409206;32;19989;-89
2022/09/08 05:15:22;;;;;;;;;;;;;;;21.38;60.34;99466.31;4395106;32;19989;-89
2022/09/08 05:17:48;;;;;;;;;;;;;;;21.54;60.34;99472.03;4407089;32;20042;-90
2022/09/08 05:20:13;;;;;;;;;;;;;;;21.56;60.34;99470.09;4409082;32;20016;-90
2022/09/08 05:22:38;;;;;;;;;;;;;;;21.59;60.35;99467.19;4407501;32;20009;-88
2022/09/08 05:25:04;;;;;;;;;;;;;;;21.66;60.35;99459.59;4408915;32;19988;-89
2022/09/08 05:27:29;;;;;;;;;;;;;;;21.76;60.35;99460.50;4394795;32;19997;-90
2022/09/08 05:29:54;;;;;;;;;;;;;;;21.75;60.35;99462.31;4407590;32;20037;-89
2022/09/08 05:32:19;;;;;;;;;;;;;;;21.84;60.36;99465.19;4407293;32;20036;-89
2022/09/08 05:34:44;;;;;;;;;;;;;;;21.85;60.36;99461.56;4407768;32;20311;-89
2022/09/08 05:37:10;;;;;;;;;;;;;;;21.98;60.36;99454.25;4407453;32;19978;-89
2022/09/08 05:39:35;;;;;;;;;;;;;;;22.01;60.37;99460.16;4408533;32;21179;-89
2022/09/08 05:42:00;;;;;;;;;;;;;;;22.21;60.38;99471.75;4394853;32;20002;-88
2022/09/08 05:44:25;;;;;;;;;;;;;;;22.14;60.38;99467.94;4408850;32;20026;-88
2022/09/08 05:46:51;;;;;;;;;;;;;;;22.25;60.38;99473.19;4407356;32;20001;-88
2022/09/08 05:49:16;;;;;;;;;;;;;;;22.34;60.39;99459.13;4408305;32;25361;-88
2022/09/08 05:51:41;;;;;;;;;;;;;;;22.39;60.39;99449.94;4406972;32;20466;-89
2022/09/08 05:54:06;;;;;;;;;;;;;;;22.52;60.40;99455.88;4407491;32;19974;-89
2022/09/08 05:56:32;;;;;;;;;;;;;;;22.61;60.40;99455.94;4408826;32;20515;-87
2022/09/08 05:58:57;;;;;;;;;;;;;;;22.69;60.40;99449.94;4407397;32;19990;-89
2022/09/08 06:01:23;;;;;;;;;;;;;;;22.69;60.40;99447.28;4407253;32;20284;-88
2022/09/08 06:03:51;;;;;;;;;;;;;;;22.73;60.41;99448.72;4408810;32;20320;-87
2022/09/08 06:06:17;;;;;;;;;;;;;;;22.75;60.41;99452.09;4407678;32;20044;-87
2022/09/08 06:08:42;;;;;;;;;;;;;;;22.91;60.42;99452.44;4409221;32;19982;-87
2022/09/08 06:11:07;;;;;;;;;;;;;;;23.00;60.43;99449.97;4396116;32;19998;-87
2022/09/08 06:13:33;;;;;;;;;;;;;;;22.96;60.43;99444.94;4410968;32;20011;-87
2022/09/08 06:16:04;;;;;;;;;;;;;;;23.15;60.43;99438.81;4419101;32;19977;-88
2022/09/08 06:18:31;;;;;;;;;;;;;;;23.19;60.42;99445.56;4411979;32;20006;-88
2022/09/08 06:20:58;;;;;;;;;;;;;;;23.26;60.43;99438.72;4408682;32;19990;-87
2022/09/08 06:23:23;;;;;;;;;;;;;;;23.29;60.44;99445.56;4408253;32;20057;-86
2022/09/08 06:25:48;;;;;;;;;;;;;;;23.43;60.45;99439.84;4407210;32;20001;-87
2022/09/08 06:28:21;;;;;;;;;;;;;;;23.47;60.44;99438.59;4406471;32;30192;-87
2022/09/08 06:30:46;;;;;;;;;;;;;;;23.48;60.44;99431.47;4410468;32;20058;-89
2022/09/08 06:33:12;;;;;;;;;;;;;;;23.56;60.45;99424.50;4409072;32;19966;-88
2022/09/08 06:35:45;;;;;;;;;;;;;;;23.65;60.45;99427.28;4396074;32;19996;-88
2022/09/08 06:38:12;;;;;;;;;;;;;;;23.71;60.46;99426.75;4408849;32;20039;-87
2022/09/08 06:40:43;;;;;;;;;;;;;;;23.72;60.46;99428.44;4408842;32;19990;-88
2022/09/08 06:43:16;;;;;;;;;;;;;;;23.77;60.47;99418.22;4408745;32;19978;-88
2022/09/08 06:45:46;;;;;;;;;;;;;;;23.88;60.47;99418.88;4408739;32;19974;-87
2022/09/08 06:48:15;;;;;;;;;;;;;;;23.96;60.47;99418.19;4395988;32;20362;-87
2022/09/08 06:50:59;;;;;;;;;;;;;;;23.94;60.47;99420.16;4409912;32;20583;-88
2022/09/08 06:53:25;;;;;;;;;;;;;;;23.95;60.47;99408.53;4410152;32;20073;-88
2022/09/08 06:55:56;;;;;;;;;;;;;;;24.10;60.48;99407.09;4408702;32;19987;-87
2022/09/08 06:58:22;;;;;;;;;;;;;;;24.15;60.48;99410.19;4408459;32;19987;-87
2022/09/08 07:00:51;;;;;;;;;;;;;;;24.34;60.49;99400.47;4410091;32;20341;-88
2022/09/08 07:03:39;;;;;;;;;;;;;;;24.46;60.51;99392.19;4408467;32;19970;-88
2022/09/08 07:06:07;;;;;;;;;;;;;;;24.40;60.49;99392.78;4394663;32;20041;-87
2022/09/08 07:08:48;;;;;;;;;;;;;;;24.39;60.50;99400.91;4408692;32;19990;-88
2022/09/08 07:11:23;;;;;;;;;;;;;;;24.46;60.51;99391.34;4409998;32;19990;-87
2022/09/08 07:14:11;;;;;;;;;;;;;;;24.55;60.50;99395.78;4408695;32;19986;-87
2022/09/08 07:16:47;;;;;;;;;;;;;;;24.56;60.51;99392.13;4405322;32;19974;-88
2022/09/08 07:19:15;;;;;;;;;;;;;;;24.77;60.52;99392.75;4408694;32;20041;-88
2022/09/08 07:21:51;;;;;;;;;;;;;;;24.74;60.51;99387.72;4408502;32;20146;-87
2022/09/08 07:24:16;;;;;;;;;;;;;;;24.86;60.53;99379.53;4409923;32;19974;-88
2022/09/08 07:26:55;;;;;;;;;;;;;;;24.86;60.53;99387.53;4408667;32;20376;-87
2022/09/08 07:29:22;;;;;;;;;;;;;;;24.91;60.52;99387.91;4408542;32;20033;-87
2022/09/08 07:31:48;;;;;;;;;;;;;;;24.98;60.54;99387.16;4408821;32;20008;-87
2022/09/08 07:34:15;;;;;;;;;;;;;;;24.96;60.53;99382.97;4408672;32;19978;-87
2022/09/08 07:36:58;;;;;;;;;;;;;;;25.02;60.53;99395.72;4408827;32;19986;-87
2022/09/08 07:39:26;;;;;;;;;;;;;;;25.13;60.53;99392.00;4410596;32;20322;-87
2022/09/08 07:41:53;;;;;;;;;;;;;;;25.30;60.54;99397.34;4409297;32;19985;-88
2022/09/08 07:44:19;;;;;;;;;;;;;;;25.45;60.55;99400.31;4412017;32;19955;-89
2022/09/08 07:47:03;;;;;;;;;;;;;;;25.24;60.54;99403.28;4415703;32;19978;-89
2022/09/08 07:49:47;;;;;;;;;;;;;;;25.38;60.56;99400.09;4417343;32;20025;-89
2022/09/08 07:52:12;;;;;;;;;;;;;;;25.40;60.55;99400.78;4410123;32;19990;-87
2022/09/08 07:54:47;;;;;;;;;;;;;;;25.43;60.55;99402.31;4409758;32;19981;-88
2022/09/08 07:57:15;;;;;;;;;;;;;;;25.51;60.56;99405.03;4408389;32;20314;-87
2022/09/08 07:59:59;;;;;;;;;;;;;;;25.60;60.56;99409.47;4409649;32;20038;-87
2022/09/08 08:02:34;;;;;;;;;;;;;;;25.64;60.56;99418.00;4408297;32;20335;-86
2022/09/08 08:05:18;;;;;;;;;;;;;;;25.73;60.57;99416.25;4408534;32;20035;-87
2022/09/08 08:07:46;;;;;;;;;;;;;;;25.90;60.57;99423.41;4409603;32;20452;-87
2022/09/08 08:10:30;;;;;;;;;;;;;;;26.13;60.59;99421.06;4408509;32;19989;-87
2022/09/08 08:13:14;;;;;;;;;;;;;;;26.06;60.58;99420.03;4395879;32;20009;-87
2022/09/08 08:15:42;;;;;;;;;;;;;;;26.30;60.59;99425.53;4409427;32;20001;-86
2022/09/08 08:18:08;;;;;;;;;;;;;;;26.46;60.60;99433.62;4409408;32;19984;-87
2022/09/08 08:20:37;;;;;;;;;;;;;;;26.51;60.61;99431.34;4409399;32;19978;-85
2022/09/08 08:23:09;;;;;;;;;;;;;;;26.65;60.62;99421.06;4408084;32;20057;-85
2022/09/08 08:25:44;;;;;;;;;;;;;;;26.81;60.63;99421.16;4409211;32;19979;-85
2022/09/08 08:28:17;;;;;;;;;;;;;;;26.81;60.63;99421.16;4409067;32;20316;-85
2022/09/08 08:31:02;;;;;;;;;;;;;;;26.90;60.64;99426.34;4408188;32;20002;-85
2022/09/08 08:33:28;;;;;;;;;;;;;;;26.95;60.64;99436.53;4382434;32;19989;-88
2022/09/08 08:35:55;;;;;;;;;;;;;;;27.14;60.64;99436.31;4408072;32;20019;-87
2022/09/08 08:38:22;;;;;;;;;;;;;;;27.34;60.65;99433.34;4395409;32;19978;-87
2022/09/08 08:40:53;;;;;;;;;;;;;;;27.45;60.66;99427.72;4407938;32;20034;-85
2022/09/08 08:43:24;;;;;;;;;;;;;;;27.73;60.67;99423.75;4409300;32;20452;-87
2022/09/08 08:45:50;;;;;;;;;;;;;;;27.91;60.69;99426.25;4408346;32;20037;-85
2022/09/08 08:48:35;;;;;;;;;;;;;;;28.09;60.69;99428.75;4409216;32;20012;-86
2022/09/08 08:51:20;;;;;;;;;;;;;;;28.19;60.69;99416.03;4394776;32;19986;-87
2022/09/08 08:53:49;;;;;;;;;;;;;;;28.35;60.70;99416.00;4406372;32;19994;-86
2022/09/08 08:56:26;;;;;;;;;;;;;;;28.45;60.70;99412.31;4408570;32;19978;-86
2022/09/08 08:59:10;;;;;;;;;;;;;;;28.68;60.72;99406.06;4407668;32;19982;-86
2022/09/08 09:01:51;;;;;;;;;;;;;;;28.77;60.72;99406.84;4408218;32;20010;-87
2022/09/08 09:04:16;;;;;;;;;;;;;;;28.96;60.73;99408.31;4408137;32;20635;-86
2022/09/08 09:06:50;;;;;;;;;;;;;;;28.99;60.73;99398.06;4409477;32;20294;-87
2022/09/08 09:09:18;;;;;;;;;;;;;;;29.09;60.73;99381.75;4408858;32;20020;-84
2022/09/08 09:11:59;;;;;;;;;;;;;;;29.13;60.74;99377.72;4408433;32;20293;-85
2022/09/08 09:14:43;;;;;;;;;;;;;;;29.19;60.74;99374.34;4396231;32;20002;-86
2022/09/08 09:17:08;;;;;;;;;;;;;;;29.26;60.76;99374.44;4411387;32;19989;-84
2022/09/08 09:19:41;;;;;;;;;;;;;;;29.35;60.75;99370.72;4419705;32;19986;-86
2022/09/08 09:22:18;;;;;;;;;;;;;;;29.47;60.76;99366.63;4410199;32;19982;-85
2022/09/08 09:24:50;;;;;;;;;;;;;;;29.57;60.77;99361.84;4409046;32;19986;-86
2022/09/08 09:27:22;;;;;;;;;;;;;;;29.58;60.77;99363.53;4406719;32;19966;-86
2022/09/08 09:29:47;;;;;;;;;;;;;;;29.61;60.77;99362.34;4406858;32;19986;-84
2022/09/08 09:32:31;;;;;;;;;;;;;;;29.64;60.77;99356.59;4394650;32;19987;-86
2022/09/08 09:34:57;;;;;;;;;;;;;;;29.81;60.78;99349.22;4408937;32;20386;-84
2022/09/08 09:37:25;;;;;;;;;;;;;;;30.01;60.79;99354.91;4408506;32;19993;-85
2022/09/08 09:39:56;;;;;;;;;;;;;;;30.09;60.79;99353.00;4408699;32;19962;-84
2022/09/08 09:42:30;;;;;;;;;;;;;;;30.24;60.80;99335.03;4408658;32;19986;-84
2022/09/08 09:45:14;;;;;;;;;;;;;;;30.36;60.81;99338.09;4408529;32;20383;-84
2022/09/08 09:47:43;;;;;;;;;;;;;;;30.49;60.81;99340.13;4408686;32;20353;-84
2022/09/08 09:50:17;;;;;;;;;;;;;;;30.47;60.82;99339.47;4406630;32;19997;-85
2022/09/08 09:52:49;;;;;;;;;;;;;;;30.66;60.82;99333.56;4408247;32;20025;-85
2022/09/08 09:55:23;;;;;;;;;;;;;;;30.75;60.82;99340.47;4407275;32;20024;-85
2022/09/08 09:57:57;;;;;;;;;;;;;;;30.89;60.83;99336.09;4407156;32;19979;-85
2022/09/08 10:00:28;;;;;;;;;;;;;;;31.05;60.84;99337.72;4408271;32;19986;-84
2022/09/08 10:03:06;;;;;;;;;;;;;;;31.29;60.85;99328.50;4407097;32;19983;-84
2022/09/08 10:06:01;;;;;;;;;;;;;;;31.45;60.86;99331.72;4395931;32;20008;-84
2022/09/08 10:08:44;;;;;;;;;;;;;;;31.63;60.87;99333.13;4396520;32;20016;-84
2022/09/08 10:11:10;;;;;;;;;;;;;;;31.82;60.88;99318.19;4409905;32;20337;-83
2022/09/08 10:13:54;;;;;;;;;;;;;;;31.85;60.88;99325.88;4408303;32;20002;-84
2022/09/08 10:16:28;;;;;;;;;;;;;;;31.91;60.88;99327.78;4409083;32;20053;-84
2022/09/08 10:19:03;;;;;;;;;;;;;;;31.90;60.89;99321.56;4410388;32;19978;-83
2022/09/08 10:21:46;;;;;;;;;;;;;;;31.99;60.88;99315.00;4409112;32;19989;-84
2022/09/08 10:24:24;;;;;;;;;;;;;;;32.21;60.91;99307.69;4410476;32;19982;-84
2022/09/08 10:26:53;;;;;;;;;;;;;;;32.30;60.90;99302.97;4408976;32;20002;-84
2022/09/08 10:29:35;;;;;;;;;;;;;;;32.44;60.90;99293.09;4408917;32;19981;-84
2022/09/08 10:32:01;;;;;;;;;;;;;;;32.35;60.90;99295.13;4409036;32;19996;-84
2022/09/08 10:34:52;;;;;;;;;;;;;;;32.32;60.90;99290.13;4410206;32;20315;-83
2022/09/08 10:37:17;;;;;;;;;;;;;;;32.32;60.91;99285.59;4386301;32;20362;-84
2022/09/08 10:39:47;;;;;;;;;;;;;;;32.34;60.91;99298.84;4410061;32;20002;-82
2022/09/08 10:42:12;;;;;;;;;;;;;;;32.51;60.91;99297.47;4409119;32;19993;-84
2022/09/08 10:44:56;;;;;;;;;;;;;;;32.59;60.92;99312.63;4410666;32;19978;-84
2022/09/08 10:47:27;;;;;;;;;;;;;;;32.74;60.93;99307.94;4411179;32;20025;-83
2022/09/08 10:49:59;;;;;;;;;;;;;;;32.83;60.93;99295.94;4411719;32;20275;-83
2022/09/08 10:52:25;;;;;;;;;;;;;;;32.94;60.94;99292.66;4420180;32;20020;-84
2022/09/08 10:54:56;;;;;;;;;;;;;;;33.01;60.94;99291.84;4410520;32;19992;-83
2022/09/08 10:57:40;;;;;;;;;;;;;;;33.02;60.94;99291.63;4408645;32;19998;-84
2022/09/08 11:00:06;;;;;;;;;;;;;;;33.18;60.95;99290.44;4409877;32;19975;-84
2022/09/08 11:02:34;;;;;;;;;;;;;;;33.13;60.94;99296.44;4409935;32;19979;-85
2022/09/08 11:05:12;;;;;;;;;;;;;;;33.24;60.96;99286.91;4408594;32;20335;-85
2022/09/08 11:07:56;;;;;;;;;;;;;;;33.48;60.96;99277.37;4409878;32;19986;-84
2022/09/08 11:10:39;;;;;;;;;;;;;;;33.56;60.96;99282.56;4410037;32;19990;-85
2022/09/08 11:13:16;;;;;;;;;;;;;;;33.68;60.97;99283.59;4409924;32;19978;-85
2022/09/08 11:15:42;;;;;;;;;;;;;;;33.66;60.98;99291.09;4407761;32;20046;-83
2022/09/08 11:18:16;;;;;;;;;;;;;;;33.87;60.98;99290.06;4409800;32;19973;-84
2022/09/08 11:20:51;;;;;;;;;;;;;;;34.03;60.98;99289.56;4408319;32;19996;-84
2022/09/08 11:23:16;;;;;;;;;;;;;;;34.20;61.00;99291.81;4408546;32;19978;-84
2022/09/08 11:25:41;;;;;;;;;;;;;;;34.33;61.00;99281.81;4407652;32;19993;-84
2022/09/08 11:28:44;;;;;;;;;;;;;;;34.36;61.00;99278.72;4407751;32;19989;-85
2022/09/08 11:31:15;;;;;;;;;;;;;;;34.43;61.01;99278.69;4409881;32;19993;-85
2022/09/08 11:33:58;;;;;;;;;;;;;;;34.53;61.00;99281.72;4410205;32;19985;-85
2022/09/08 11:36:39;;;;;;;;;;;;;;;34.59;61.01;99288.19;4408529;32;20013;-86
2022/09/08 11:39:05;;;;;;;;;;;;;;;34.51;61.01;99285.69;4409819;32;20661;-86
2022/09/08 11:41:30;;;;;;;;;;;;;;;34.50;61.01;99278.63;4409886;32;20112;-86
2022/09/08 11:44:14;;;;;;;;;;;;;;;34.59;61.01;99277.37;4409912;32;19991;-86
2022/09/08 11:46:58;;;;;;;;;;;;;;;34.61;61.01;99272.56;4408018;32;20276;-86
2022/09/08 11:49:42;;;;;;;;;;;;;;;34.61;61.01;99278.81;4408526;32;19990;-85
2022/09/08 11:52:25;;;;;;;;;;;;;;;34.88;61.03;99281.38;4409526;32;20029;-85
2022/09/08 11:55:01;;;;;;;;;;;;;;;34.92;61.04;99269.91;4408316;32;19997;-85
2022/09/08 11:57:45;;;;;;;;;;;;;;;35.04;61.04;99261.94;4408147;32;20001;-84
2022/09/08 12:00:29;;;;;;;;;;;;;;;34.98;61.04;99269.03;4408390;32;20319;-85
2022/09/08 12:03:09;;;;;;;;;;;;;;;34.98;61.03;99274.44;4408531;32;19989;-85
2022/09/08 12:05:47;;;;;;;;;;;;;;;34.97;61.04;99271.97;4409257;32;20366;-86
2022/09/08 12:08:12;;;;;;;;;;;;;;;34.87;61.04;99271.63;4408156;32;20002;-85
2022/09/08 12:10:40;;;;;;;;;;;;;;;34.87;61.03;99267.03;4409513;32;20282;-86
2022/09/08 12:13:18;;;;;;;;;;;;;;;35.00;61.03;99258.81;4408310;32;19979;-86
2022/09/08 12:15:50;;;;;;;;;;;;;;;34.95;61.04;99260.53;4407881;32;20024;-85
2022/09/08 12:18:22;;;;;;;;;;;;;;;35.00;61.04;99250.69;4408020;32;20005;-84
2022/09/08 12:21:02;;;;;;;;;;;;;;;34.81;61.03;99243.56;4407882;32;20075;-85
2022/09/08 12:23:33;;;;;;;;;;;;;;;34.82;61.03;99244.38;4412082;32;19981;-84
2022/09/08 12:26:07;;;;;;;;;;;;;;;34.92;61.03;99242.03;4418456;32;19986;-86
2022/09/08 12:28:37;;;;;;;;;;;;;;;34.96;61.04;99251.38;4407362;32;20049;-83
2022/09/08 12:31:11;;;;;;;;;;;;;;;34.86;61.04;99240.22;4407776;32;20033;-84
2022/09/08 12:33:55;;;;;;;;;;;;;;;34.83;61.03;99236.03;4407075;32;20335;-84
2022/09/08 12:36:24;;;;;;;;;;;;;;;34.84;61.03;99237.72;4409015;32;19985;-85
2022/09/08 12:38:56;;;;;;;;;;;;;;;34.76;61.03;99237.94;4408256;32;19985;-85
2022/09/08 12:41:22;;;;;;;;;;;;;;;34.72;61.03;99236.72;4407066;32;20012;-84
2022/09/08 12:43:48;;;;;;;;;;;;;;;34.82;61.03;99238.97;4409068;32;20267;-84
2022/09/08 12:46:16;;;;;;;;;;;;;;;34.83;61.04;99221.69;4409141;32;19970;-83
2022/09/08 12:48:46;;;;;;;;;;;;;;;35.01;61.05;99219.91;4408906;32;19985;-84
2022/09/08 12:51:11;;;;;;;;;;;;;;;35.07;61.05;99210.94;4407673;32;20006;-84
2022/09/08 12:53:55;;;;;;;;;;;;;;;35.12;61.05;99212.97;4409080;32;20300;-85
2022/09/08 12:56:25;;;;;;;;;;;;;;;35.16;61.05;99213.34;4407947;32;20619;-85
2022/09/08 12:59:09;;;;;;;;;;;;;;;35.03;61.05;99208.87;4407926;32;20055;-86
2022/09/08 13:01:41;;;;;;;;;;;;;;;35.03;61.05;99208.87;4407873;32;20008;-86
2022/09/08 13:04:30;;;;;;;;;;;;;;;35.01;61.05;99205.56;4408896;32;19988;-85
2022/09/08 13:07:25;;;;;;;;;;;;;;;35.00;61.04;99203.91;4373371;32;19970;-84
2022/09/08 13:09:53;;;;;;;;;;;;;;;35.15;61.05;99211.69;4395594;32;19986;-84